Time;durP1;ratioP1;P1;durP2;ratioP2;P2;SDS_P1;SDS_P2;PMS_P1;PMS_P2;Temp;Humidity;BMP_temperature;BMP_pressure;BME280_temperature;BME280_humidity;BME280_pressure;Samples;Min_cycle;Max_cycle;Signal;HPM_P1;HPM_P2
2019/09/15 00:00:42;;;;;;;22.65;20.65;;;;;;;13.62;100;96221.88;;;;
2019/09/15 00:02:15;;;;;;;21.55;19.65;;;;;;;13.58;100;96214.73;;;;
2019/09/15 00:03:31;;;;;;;21.55;19.65;;;;;;;13.58;100;96214.73;;;;
2019/09/15 00:04:33;;;;;;;23.2;21.15;;;;;;;13.55;100;96221.99;;;;
2019/09/15 00:05:34;;;;;;;23.2;21.15;;;;;;;13.55;100;96221.99;;;;
2019/09/15 00:06:36;;;;;;;23.2;21.15;;;;;;;13.55;100;96221.99;;;;
2019/09/15 00:07:37;;;;;;;22.2;20.2;;;;;;;13.52;100;96218.39;;;;
2019/09/15 00:08:39;;;;;;;22.2;20.2;;;;;;;13.52;100;96218.39;;;;
2019/09/15 00:09:41;;;;;;;23.3;21.3;;;;;;;13.49;100;96218.84;;;;
2019/09/15 00:10:42;;;;;;;23.3;21.3;;;;;;;13.49;100;96218.84;;;;
2019/09/15 00:11:47;;;;;;;23.3;21.3;;;;;;;13.49;100;96218.84;;;;
2019/09/15 00:12:49;;;;;;;24.8;22.45001;;;;;;;13.47;100;96220.98;;;;
2019/09/15 00:13:50;;;;;;;24.8;22.45001;;;;;;;13.47;100;96220.98;;;;
2019/09/15 00:14:52;;;;;;;23.4;21.4;;;;;;;13.44;100;96216.94;;;;
2019/09/15 00:15:53;;;;;;;23.4;21.4;;;;;;;13.44;100;96216.94;;;;
2019/09/15 00:17:14;;;;;;;23.4;21.4;;;;;;;13.44;100;96216.94;;;;
2019/09/15 00:18:20;;;;;;;23.45;21.25;;;;;;;13.41;100;96211.04;;;;
2019/09/15 00:19:21;;;;;;;23.45;21.25;;;;;;;13.41;100;96211.04;;;;
2019/09/15 00:20:22;;;;;;;23.2;21.15;;;;;;;13.39;100;96214.92;;;;
2019/09/15 00:21:24;;;;;;;23.2;21.15;;;;;;;13.39;100;96214.92;;;;
2019/09/15 00:22:26;;;;;;;23.2;21.15;;;;;;;13.39;100;96214.92;;;;
2019/09/15 00:23:27;;;;;;;23.7;21.5;;;;;;;13.36;100;96210.49;;;;
2019/09/15 00:24:29;;;;;;;23.7;21.5;;;;;;;13.36;100;96210.49;;;;
2019/09/15 00:25:30;;;;;;;23.5;21.3;;;;;;;13.33;100;96198.75;;;;
2019/09/15 00:26:32;;;;;;;23.5;21.3;;;;;;;13.33;100;96198.75;;;;
2019/09/15 00:27:33;;;;;;;23.5;21.3;;;;;;;13.33;100;96198.75;;;;
2019/09/15 00:28:35;;;;;;;24.65;22.15;;;;;;;13.31;100;96200.87;;;;
2019/09/15 00:29:36;;;;;;;24.65;22.15;;;;;;;13.31;100;96200.87;;;;
2019/09/15 00:30:38;;;;;;;24.65;22.15;;;;;;;13.31;100;96200.87;;;;
2019/09/15 00:31:59;;;;;;;24.4;21.9;;;;;;;13.28;100;96199.44;;;;
2019/09/15 00:33:00;;;;;;;24.4;21.9;;;;;;;13.28;100;96199.44;;;;
2019/09/15 00:34:01;;;;;;;25.6;23.2;;;;;;;13.26;100;96200.19;;;;
2019/09/15 00:35:03;;;;;;;25.6;23.2;;;;;;;13.26;100;96200.19;;;;
2019/09/15 00:36:05;;;;;;;26.05;23.6;;;;;;;13.24;100;96202.84;;;;
2019/09/15 00:37:06;;;;;;;26.05;23.6;;;;;;;13.24;100;96202.84;;;;
2019/09/15 00:38:08;;;;;;;26.05;23.6;;;;;;;13.24;100;96202.84;;;;
2019/09/15 00:39:09;;;;;;;25.95;23.5;;;;;;;13.21;100;96200.05;;;;
2019/09/15 00:40:11;;;;;;;25.95;23.5;;;;;;;13.21;100;96200.05;;;;
2019/09/15 00:41:16;;;;;;;25.95;23.5;;;;;;;13.21;100;96200.05;;;;
2019/09/15 00:42:19;;;;;;;27.85;25.2;;;;;;;13.19;100;96193.61;;;;
2019/09/15 00:43:20;;;;;;;27.85;25.2;;;;;;;13.19;100;96193.61;;;;
2019/09/15 00:44:22;;;;;;;30.55;27.6;;;;;;;13.17;100;96197.08;;;;
2019/09/15 00:45:23;;;;;;;30.55;27.6;;;;;;;13.17;100;96197.08;;;;
2019/09/15 00:46:25;;;;;;;30.55;27.6;;;;;;;13.17;100;96197.08;;;;
2019/09/15 00:47:27;;;;;;;30.3;27.2;;;;;;;13.16;100;96190.95;;;;
2019/09/15 00:48:29;;;;;;;30.3;27.2;;;;;;;13.16;100;96190.95;;;;
2019/09/15 00:49:30;;;;;;;30.6;27.45;;;;;;;13.15;100;96188.89;;;;
2019/09/15 00:50:32;;;;;;;30.6;27.45;;;;;;;13.15;100;96188.89;;;;
2019/09/15 00:51:34;;;;;;;30.6;27.45;;;;;;;13.15;100;96188.89;;;;
2019/09/15 00:52:36;;;;;;;28.95;26.1;;;;;;;13.13;100;96189.65;;;;
2019/09/15 00:53:37;;;;;;;28.95;26.1;;;;;;;13.13;100;96189.65;;;;
2019/09/15 00:54:38;;;;;;;28.7;25.9;;;;;;;13.11;100;96187.17;;;;
2019/09/15 00:55:40;;;;;;;28.7;25.9;;;;;;;13.11;100;96187.17;;;;
2019/09/15 00:57:14;;;;;;;26.95;24.45;;;;;;;13.09;100;96182.09;;;;
2019/09/15 00:58:15;;;;;;;26.95;24.45;;;;;;;13.09;100;96182.09;;;;
2019/09/15 00:59:16;;;;;;;26.95;24.45;;;;;;;13.09;100;96182.09;;;;
2019/09/15 01:00:17;;;;;;;28.05;25.4;;;;;;;13.07;100;96181.48;;;;
2019/09/15 01:01:20;;;;;;;28.05;25.4;;;;;;;13.07;100;96181.48;;;;
2019/09/15 01:02:23;;;;;;;28.05;25.4;;;;;;;13.07;100;96181.48;;;;
2019/09/15 01:03:25;;;;;;;27.4;24.8;;;;;;;13.04;100;96175.04;;;;
2019/09/15 01:04:26;;;;;;;27.4;24.8;;;;;;;13.04;100;96175.04;;;;
2019/09/15 01:05:27;;;;;;;26.75;23.95001;;;;;;;13.03;100;96173.5;;;;
2019/09/15 01:06:29;;;;;;;26.75;23.95001;;;;;;;13.03;100;96173.5;;;;
2019/09/15 01:07:33;;;;;;;26.75;23.95001;;;;;;;13.03;100;96173.5;;;;
2019/09/15 01:08:34;;;;;;;26.54999;23.95;;;;;;;13;100;96171.64;;;;
2019/09/15 01:09:37;;;;;;;26.54999;23.95;;;;;;;13;100;96171.64;;;;
2019/09/15 01:10:38;;;;;;;26;23.5;;;;;;;12.99;100;96170.94;;;;
2019/09/15 01:11:40;;;;;;;26;23.5;;;;;;;12.99;100;96170.94;;;;
2019/09/15 01:12:41;;;;;;;26;23.5;;;;;;;12.99;100;96170.94;;;;
2019/09/15 01:13:43;;;;;;;25;22.6;;;;;;;12.96;100;96167.31;;;;
2019/09/15 01:14:45;;;;;;;25;22.6;;;;;;;12.96;100;96167.31;;;;
2019/09/15 01:15:46;;;;;;;25;22.6;;;;;;;12.96;100;96167.31;;;;
2019/09/15 01:17:00;;;;;;;25;22.6;;;;;;;12.96;100;96167.31;;;;
2019/09/15 01:18:01;;;;;;;25;22.6;;;;;;;12.96;100;96167.31;;;;
2019/09/15 01:19:03;;;;;;;25;22.6;;;;;;;12.96;100;96167.31;;;;
2019/09/15 01:20:04;;;;;;;25;22.6;;;;;;;12.96;100;96167.31;;;;
2019/09/15 01:21:06;;;;;;;25;22.6;;;;;;;12.96;100;96167.31;;;;
2019/09/15 01:22:08;;;;;;;25;22.6;;;;;;;12.96;100;96167.31;;;;
2019/09/15 01:23:10;;;;;;;25;22.6;;;;;;;12.96;100;96167.31;;;;
2019/09/15 01:24:12;;;;;;;25.65;23;;;;;;;12.53;100;96170.57;;;;
2019/09/15 01:25:14;;;;;;;25.65;23;;;;;;;12.53;100;96170.57;;;;
2019/09/15 01:26:16;;;;;;;25.65;23;;;;;;;12.53;100;96170.57;;;;
2019/09/15 01:27:18;;;;;;;27.05;24.35;;;;;;;12.51;100;96161.42;;;;
2019/09/15 01:28:19;;;;;;;27.05;24.35;;;;;;;12.51;100;96161.42;;;;
2019/09/15 01:29:20;;;;;;;27.4;24.75;;;;;;;12.53;100;96157.44;;;;
2019/09/15 01:30:22;;;;;;;27.4;24.75;;;;;;;12.53;100;96157.44;;;;
2019/09/15 01:31:24;;;;;;;27.4;24.75;;;;;;;12.53;100;96157.44;;;;
2019/09/15 01:32:27;;;;;;;25.35;23.05;;;;;;;12.56;100;96154.79;;;;
2019/09/15 01:33:29;;;;;;;25.35;23.05;;;;;;;12.56;100;96154.79;;;;
2019/09/15 01:34:30;;;;;;;25.4;22.95;;;;;;;12.57;100;96147.39;;;;
2019/09/15 01:35:31;;;;;;;25.4;22.95;;;;;;;12.57;100;96147.39;;;;
2019/09/15 01:36:33;;;;;;;25.4;22.95;;;;;;;12.57;100;96147.39;;;;
2019/09/15 01:37:37;;;;;;;24.6;22.3;;;;;;;12.58;100;96143.2;;;;
2019/09/15 01:38:38;;;;;;;24.6;22.3;;;;;;;12.58;100;96143.2;;;;
2019/09/15 01:39:40;;;;;;;25.6;23.25;;;;;;;12.58;100;96139.14;;;;
2019/09/15 01:40:41;;;;;;;25.6;23.25;;;;;;;12.58;100;96139.14;;;;
2019/09/15 01:41:43;;;;;;;25.6;23.25;;;;;;;12.58;100;96139.14;;;;
2019/09/15 01:42:49;;;;;;;25.8;23.35;;;;;;;12.58;100;96139.14;;;;
2019/09/15 01:43:50;;;;;;;25.8;23.35;;;;;;;12.58;100;96139.14;;;;
2019/09/15 01:44:51;;;;;;;25.8;23.35;;;;;;;12.58;100;96139.14;;;;
2019/09/15 01:45:53;;;;;;;25.8;23.35;;;;;;;12.58;100;96139.14;;;;
2019/09/15 01:47:10;;;;;;;25.8;23.35;;;;;;;12.58;100;96139.14;;;;
2019/09/15 01:48:11;;;;;;;25.8;23.35;;;;;;;12.58;100;96139.14;;;;
2019/09/15 01:49:12;;;;;;;25.8;23.35;;;;;;;12.58;100;96139.14;;;;
2019/09/15 01:50:13;;;;;;;25.8;23.35;;;;;;;12.58;100;96139.14;;;;
2019/09/15 01:51:17;;;;;;;25.8;23.35;;;;;;;12.58;100;96139.14;;;;
2019/09/15 01:52:33;;;;;;;25.8;23.35;;;;;;;12.58;100;96139.14;;;;
2019/09/15 01:53:35;;;;;;;23.7;21.4;;;;;;;12.22;100;96127.89;;;;
2019/09/15 01:54:36;;;;;;;23.7;21.4;;;;;;;12.22;100;96127.89;;;;
2019/09/15 01:55:38;;;;;;;24.1;21.8;;;;;;;12.19;100;96120.14;;;;
2019/09/15 01:56:40;;;;;;;24.1;21.8;;;;;;;12.19;100;96120.14;;;;
2019/09/15 01:57:43;;;;;;;24.1;21.8;;;;;;;12.19;100;96120.14;;;;
2019/09/15 01:58:45;;;;;;;24.45;22.05;;;;;;;12.23;100;96114.67;;;;
2019/09/15 01:59:47;;;;;;;24.45;22.05;;;;;;;12.23;100;96114.67;;;;
2019/09/15 02:00:49;;;;;;;23.25;21.1;;;;;;;12.25;100;96114.34;;;;
2019/09/15 02:01:51;;;;;;;23.25;21.1;;;;;;;12.25;100;96114.34;;;;
2019/09/15 02:02:53;;;;;;;23.25;21.1;;;;;;;12.25;100;96114.34;;;;
2019/09/15 02:03:54;;;;;;;22.65;20.5;;;;;;;12.27;100;96113.18;;;;
2019/09/15 02:04:56;;;;;;;22.65;20.5;;;;;;;12.27;100;96113.18;;;;
2019/09/15 02:05:58;;;;;;;22.65;20.5;;;;;;;12.27;100;96113.18;;;;
2019/09/15 02:07:00;;;;;;;23.7;21.6;;;;;;;12.27;100;96110.35;;;;
2019/09/15 02:08:01;;;;;;;23.7;21.6;;;;;;;12.27;100;96110.35;;;;
2019/09/15 02:09:03;;;;;;;23.7;21.6;;;;;;;12.27;100;96110.35;;;;
2019/09/15 02:10:07;;;;;;;23.7;21.6;;;;;;;12.27;100;96110.35;;;;
2019/09/15 02:11:10;;;;;;;23.7;21.6;;;;;;;12.27;100;96110.35;;;;
2019/09/15 02:12:12;;;;;;;23.7;21.6;;;;;;;12.27;100;96110.35;;;;
2019/09/15 02:13:14;;;;;;;23.7;21.6;;;;;;;12.27;100;96110.35;;;;
2019/09/15 02:14:16;;;;;;;23.7;21.6;;;;;;;12.27;100;96110.35;;;;
2019/09/15 02:15:17;;;;;;;23.7;21.6;;;;;;;12.27;100;96110.35;;;;
2019/09/15 02:16:19;;;;;;;23.7;21.6;;;;;;;12.27;100;96110.35;;;;
2019/09/15 02:17:36;;;;;;;24.4;21.95;;;;;;;11.92;100;96113.76;;;;
2019/09/15 02:18:38;;;;;;;24.4;21.95;;;;;;;11.92;100;96113.76;;;;
2019/09/15 02:19:39;;;;;;;23.5;21.3;;;;;;;11.91;100;96110.32;;;;
2019/09/15 02:20:49;;;;;;;23.5;21.3;;;;;;;11.91;100;96110.32;;;;
2019/09/15 02:21:52;;;;;;;23.5;21.3;;;;;;;11.91;100;96110.32;;;;
2019/09/15 02:22:53;;;;;;;24.25;21.95;;;;;;;11.94;100;96110.28;;;;
2019/09/15 02:23:55;;;;;;;24.25;21.95;;;;;;;11.94;100;96110.28;;;;
2019/09/15 02:24:56;;;;;;;22.7;20.65;;;;;;;11.97;100;96110.79;;;;
2019/09/15 02:25:57;;;;;;;22.7;20.65;;;;;;;11.97;100;96110.79;;;;
2019/09/15 02:27:00;;;;;;;22.7;20.65;;;;;;;11.97;100;96110.79;;;;
2019/09/15 02:28:02;;;;;;;23.8;21.65;;;;;;;11.99;100;96105.98;;;;
2019/09/15 02:29:03;;;;;;;23.8;21.65;;;;;;;11.99;100;96105.98;;;;
2019/09/15 02:30:05;;;;;;;24.15;21.7;;;;;;;12;100;96113.03;;;;
2019/09/15 02:31:07;;;;;;;24.15;21.7;;;;;;;12;100;96113.03;;;;
2019/09/15 02:32:23;;;;;;;24.15;21.7;;;;;;;12;100;96113.03;;;;
2019/09/15 02:33:24;;;;;;;24.15;21.7;;;;;;;12;100;96113.03;;;;
2019/09/15 02:34:25;;;;;;;24.15;21.7;;;;;;;12;100;96113.03;;;;
2019/09/15 02:35:26;;;;;;;24.15;21.7;;;;;;;12;100;96113.03;;;;
2019/09/15 02:36:28;;;;;;;24.15;21.7;;;;;;;12;100;96113.03;;;;
2019/09/15 02:37:29;;;;;;;24.15;21.7;;;;;;;12;100;96113.03;;;;
2019/09/15 02:38:31;;;;;;;24.15;21.7;;;;;;;12;100;96113.03;;;;
2019/09/15 02:39:32;;;;;;;24.15;21.7;;;;;;;12;100;96113.03;;;;
2019/09/15 02:40:33;;;;;;;24.25;21.9;;;;;;;11.68;100;96116.49;;;;
2019/09/15 02:41:35;;;;;;;24.25;21.9;;;;;;;11.68;100;96116.49;;;;
2019/09/15 02:42:36;;;;;;;24.25;21.9;;;;;;;11.68;100;96116.49;;;;
2019/09/15 02:43:37;;;;;;;23.45001;21.3;;;;;;;11.67;100;96124.73;;;;
2019/09/15 02:44:39;;;;;;;23.45001;21.3;;;;;;;11.67;100;96124.73;;;;
2019/09/15 02:45:40;;;;;;;23.45001;21.3;;;;;;;11.67;100;96124.73;;;;
2019/09/15 02:46:57;;;;;;;25.65;23.3;;;;;;;11.71;100;96124.56;;;;
2019/09/15 02:47:58;;;;;;;25.65;23.3;;;;;;;11.71;100;96124.56;;;;
2019/09/15 02:48:59;;;;;;;24.95;22.65;;;;;;;11.74;100;96117.38;;;;
2019/09/15 02:50:01;;;;;;;24.95;22.65;;;;;;;11.74;100;96117.38;;;;
2019/09/15 02:51:03;;;;;;;24.95;22.65;;;;;;;11.74;100;96117.38;;;;
2019/09/15 02:52:04;;;;;;;23.25;21.15;;;;;;;11.78;100;96119.95;;;;
2019/09/15 02:53:08;;;;;;;23.25;21.15;;;;;;;11.78;100;96119.95;;;;
2019/09/15 02:54:09;;;;;;;21.3;19.3;;;;;;;11.79;100;96111.18;;;;
2019/09/15 02:55:11;;;;;;;21.3;19.3;;;;;;;11.79;100;96111.18;;;;
2019/09/15 02:56:12;;;;;;;21.3;19.3;;;;;;;11.79;100;96111.18;;;;
2019/09/15 02:57:14;;;;;;;21.3;19.3;;;;;;;11.79;100;96111.18;;;;
2019/09/15 02:58:15;;;;;;;21.3;19.3;;;;;;;11.79;100;96111.18;;;;
2019/09/15 02:59:16;;;;;;;21.3;19.3;;;;;;;11.79;100;96111.18;;;;
2019/09/15 03:00:18;;;;;;;21.3;19.3;;;;;;;11.79;100;96111.18;;;;
2019/09/15 03:01:20;;;;;;;21.3;19.3;;;;;;;11.79;100;96111.18;;;;
2019/09/15 03:02:38;;;;;;;21.3;19.3;;;;;;;11.79;100;96111.18;;;;
2019/09/15 03:03:39;;;;;;;21.3;19.3;;;;;;;11.79;100;96111.18;;;;
2019/09/15 03:04:41;;;;;;;20.4;18.5;;;;;;;11.43;100;96109.7;;;;
2019/09/15 03:05:42;;;;;;;20.4;18.5;;;;;;;11.43;100;96109.7;;;;
2019/09/15 03:06:43;;;;;;;20.4;18.5;;;;;;;11.43;100;96109.7;;;;
2019/09/15 03:07:44;;;;;;;21.4;19.4;;;;;;;11.41;100;96106.81;;;;
2019/09/15 03:08:45;;;;;;;21.4;19.4;;;;;;;11.41;100;96106.81;;;;
2019/09/15 03:09:47;;;;;;;21.4;19.4;;;;;;;11.41;100;96106.81;;;;
2019/09/15 03:10:48;;;;;;;21.4;19.4;;;;;;;11.41;100;96106.81;;;;
2019/09/15 03:11:55;;;;;;;21.4;19.4;;;;;;;11.41;100;96106.81;;;;
2019/09/15 03:12:56;;;;;;;21.4;19.4;;;;;;;11.41;100;96106.81;;;;
2019/09/15 03:13:57;;;;;;;21.4;19.4;;;;;;;11.41;100;96106.81;;;;
2019/09/15 03:14:58;;;;;;;21.4;19.4;;;;;;;11.41;100;96106.81;;;;
2019/09/15 03:16:00;;;;;;;21.4;19.4;;;;;;;11.41;100;96106.81;;;;
2019/09/15 03:17:05;;;;;;;21.4;19.4;;;;;;;11.41;100;96106.81;;;;
2019/09/15 03:18:07;;;;;;;20.6;18.65;;;;;;;11.19;100;96109.16;;;;
2019/09/15 03:19:08;;;;;;;20.6;18.65;;;;;;;11.19;100;96109.16;;;;
2019/09/15 03:20:09;;;;;;;20.6;18.65;;;;;;;11.19;100;96109.16;;;;
2019/09/15 03:21:12;;;;;;;21.25;19.25;;;;;;;11.2;100;96105.94;;;;
2019/09/15 03:22:13;;;;;;;21.25;19.25;;;;;;;11.2;100;96105.94;;;;
2019/09/15 03:23:15;;;;;;;21.25;19.25;;;;;;;11.2;100;96105.94;;;;
2019/09/15 03:24:16;;;;;;;21.25;19.25;;;;;;;11.2;100;96105.94;;;;
2019/09/15 03:25:17;;;;;;;21.25;19.25;;;;;;;11.2;100;96105.94;;;;
2019/09/15 03:26:44;;;;;;;21.25;19.25;;;;;;;11.2;100;96105.94;;;;
2019/09/15 03:27:45;;;;;;;21.25;19.25;;;;;;;11.2;100;96105.94;;;;
2019/09/15 03:28:46;;;;;;;21.25;19.25;;;;;;;11.2;100;96105.94;;;;
2019/09/15 03:29:47;;;;;;;21.25;19.25;;;;;;;11.2;100;96105.94;;;;
2019/09/15 03:30:49;;;;;;;20.9;18.9;;;;;;;11.01;100;96101.81;;;;
2019/09/15 03:31:50;;;;;;;20.9;18.9;;;;;;;11.01;100;96101.81;;;;
2019/09/15 03:32:51;;;;;;;20.9;18.9;;;;;;;11.01;100;96101.81;;;;
2019/09/15 03:33:53;;;;;;;20.55;18.6;;;;;;;11.02;100;96099.95;;;;
2019/09/15 03:34:54;;;;;;;20.55;18.6;;;;;;;11.02;100;96099.95;;;;
2019/09/15 03:35:55;;;;;;;20.55;18.6;;;;;;;11.02;100;96099.95;;;;
2019/09/15 03:36:58;;;;;;;20.55;18.6;;;;;;;11.02;100;96099.95;;;;
2019/09/15 03:38:00;;;;;;;20.55;18.6;;;;;;;11.02;100;96099.95;;;;
2019/09/15 03:39:01;;;;;;;20.55;18.6;;;;;;;11.02;100;96099.95;;;;
2019/09/15 03:40:05;;;;;;;20.55;18.6;;;;;;;11.02;100;96099.95;;;;
2019/09/15 03:41:07;;;;;;;20.55;18.6;;;;;;;11.02;100;96099.95;;;;
2019/09/15 03:42:09;;;;;;;20.55;18.6;;;;;;;11.02;100;96099.95;;;;
2019/09/15 03:43:10;;;;;;;20.55;18.6;;;;;;;11.02;100;96099.95;;;;
2019/09/15 03:44:11;;;;;;;18.65;16.85;;;;;;;10.88;100;96097.85;;;;
2019/09/15 03:45:13;;;;;;;18.65;16.85;;;;;;;10.88;100;96097.85;;;;
2019/09/15 03:46:14;;;;;;;18.65;16.85;;;;;;;10.88;100;96097.85;;;;
2019/09/15 03:47:16;;;;;;;19.75;17.75;;;;;;;10.9;100;96097.65;;;;
2019/09/15 03:48:17;;;;;;;19.75;17.75;;;;;;;10.9;100;96097.65;;;;
2019/09/15 03:49:18;;;;;;;19.75;17.75;;;;;;;10.9;100;96097.65;;;;
2019/09/15 03:50:19;;;;;;;19.75;17.75;;;;;;;10.9;100;96097.65;;;;
2019/09/15 03:51:21;;;;;;;19.75;17.75;;;;;;;10.9;100;96097.65;;;;
2019/09/15 03:52:57;;;;;;;19.75;17.75;;;;;;;10.9;100;96097.65;;;;
2019/09/15 03:53:58;;;;;;;19.75;17.75;;;;;;;10.9;100;96097.65;;;;
2019/09/15 03:55:00;;;;;;;19.75;17.75;;;;;;;10.9;100;96097.65;;;;
2019/09/15 03:56:02;;;;;;;19.75;17.75;;;;;;;10.9;100;96097.65;;;;
2019/09/15 03:57:04;;;;;;;19.75;17.75;;;;;;;10.9;100;96097.65;;;;
2019/09/15 03:58:05;;;;;;;19.45;17.55;;;;;;;10.75;100;96090.78;;;;
2019/09/15 03:59:06;;;;;;;19.45;17.55;;;;;;;10.75;100;96090.78;;;;
2019/09/15 04:00:08;;;;;;;19.35;17.65;;;;;;;10.77;100;96099.91;;;;
2019/09/15 04:01:12;;;;;;;19.35;17.65;;;;;;;10.77;100;96099.91;;;;
2019/09/15 04:02:13;;;;;;;19.35;17.65;;;;;;;10.77;100;96099.91;;;;
2019/09/15 04:03:15;;;;;;;19.35;17.65;;;;;;;10.77;100;96099.91;;;;
2019/09/15 04:04:16;;;;;;;19.35;17.65;;;;;;;10.77;100;96099.91;;;;
2019/09/15 04:05:17;;;;;;;19.35;17.65;;;;;;;10.77;100;96099.91;;;;
2019/09/15 04:06:20;;;;;;;19.35;17.65;;;;;;;10.77;100;96099.91;;;;
2019/09/15 04:07:24;;;;;;;19.35;17.65;;;;;;;10.77;100;96099.91;;;;
2019/09/15 04:08:25;;;;;;;19.35;17.65;;;;;;;10.77;100;96099.91;;;;
2019/09/15 04:09:27;;;;;;;19.35;17.65;;;;;;;10.77;100;96099.91;;;;
2019/09/15 04:10:28;;;;;;;19.35;17.65;;;;;;;10.77;100;96099.91;;;;
2019/09/15 04:11:30;;;;;;;20.15;18.15;;;;;;;10.71;100;96095.46;;;;
2019/09/15 04:12:31;;;;;;;20.15;18.15;;;;;;;10.71;100;96095.46;;;;
2019/09/15 04:13:33;;;;;;;20.85;18.85;;;;;;;10.77;100;96097.31;;;;
2019/09/15 04:14:34;;;;;;;20.85;18.85;;;;;;;10.77;100;96097.31;;;;
2019/09/15 04:15:37;;;;;;;20.85;18.85;;;;;;;10.77;100;96097.31;;;;
2019/09/15 04:16:38;;;;;;;20.85;18.85;;;;;;;10.77;100;96097.31;;;;
2019/09/15 04:17:39;;;;;;;20.85;18.85;;;;;;;10.77;100;96097.31;;;;
2019/09/15 04:18:41;;;;;;;20.85;18.85;;;;;;;10.77;100;96097.31;;;;
2019/09/15 04:19:42;;;;;;;20.85;18.85;;;;;;;10.77;100;96097.31;;;;
2019/09/15 04:20:43;;;;;;;20.85;18.85;;;;;;;10.77;100;96097.31;;;;
2019/09/15 04:21:44;;;;;;;20.85;18.85;;;;;;;10.77;100;96097.31;;;;
2019/09/15 04:22:46;;;;;;;20.85;18.85;;;;;;;10.77;100;96097.31;;;;
2019/09/15 04:23:47;;;;;;;21;18.85;;;;;;;10.83;100;96094.97;;;;
2019/09/15 04:24:48;;;;;;;21;18.85;;;;;;;10.83;100;96094.97;;;;
2019/09/15 04:25:49;;;;;;;21;18.85;;;;;;;10.83;100;96094.97;;;;
2019/09/15 04:26:50;;;;;;;21.8;19.7;;;;;;;10.91;100;96097.52;;;;
2019/09/15 04:27:52;;;;;;;21.8;19.7;;;;;;;10.91;100;96097.52;;;;
2019/09/15 04:28:53;;;;;;;21.8;19.7;;;;;;;10.91;100;96097.52;;;;
2019/09/15 04:29:54;;;;;;;21.8;19.7;;;;;;;10.91;100;96097.52;;;;
2019/09/15 04:30:55;;;;;;;21.8;19.7;;;;;;;10.91;100;96097.52;;;;
2019/09/15 04:32:09;;;;;;;21.8;19.7;;;;;;;10.91;100;96097.52;;;;
2019/09/15 04:33:10;;;;;;;21.8;19.7;;;;;;;10.91;100;96097.52;;;;
2019/09/15 04:34:12;;;;;;;21.8;19.7;;;;;;;10.91;100;96097.52;;;;
2019/09/15 04:35:14;;;;;;;21.8;19.7;;;;;;;10.91;100;96097.52;;;;
2019/09/15 04:36:16;;;;;;;21.8;19.7;;;;;;;10.91;100;96097.52;;;;
2019/09/15 04:37:17;;;;;;;21.75;19.6;;;;;;;11.01;100;96097.76;;;;
2019/09/15 04:38:19;;;;;;;21.75;19.6;;;;;;;11.01;100;96097.76;;;;
2019/09/15 04:39:20;;;;;;;21.75;19.6;;;;;;;11.01;100;96097.76;;;;
2019/09/15 04:40:23;;;;;;;26.2;23.5;;;;;;;11.1;100;96100.62;;;;
2019/09/15 04:41:25;;;;;;;26.2;23.5;;;;;;;11.1;100;96100.62;;;;
2019/09/15 04:42:27;;;;;;;26.2;23.5;;;;;;;11.1;100;96100.62;;;;
2019/09/15 04:43:28;;;;;;;26.2;23.5;;;;;;;11.1;100;96100.62;;;;
2019/09/15 04:44:29;;;;;;;26.2;23.5;;;;;;;11.1;100;96100.62;;;;
2019/09/15 04:45:30;;;;;;;26.2;23.5;;;;;;;11.1;100;96100.62;;;;
2019/09/15 04:46:32;;;;;;;26.2;23.5;;;;;;;11.1;100;96100.62;;;;
2019/09/15 04:47:33;;;;;;;26.2;23.5;;;;;;;11.1;100;96100.62;;;;
2019/09/15 04:48:34;;;;;;;26.2;23.5;;;;;;;11.1;100;96100.62;;;;
2019/09/15 04:49:36;;;;;;;26.2;23.5;;;;;;;11.1;100;96100.62;;;;
2019/09/15 04:50:37;;;;;;;21.7;19.45;;;;;;;11.09;100;96102.08;;;;
2019/09/15 04:51:52;;;;;;;21.7;19.45;;;;;;;11.09;100;96102.08;;;;
2019/09/15 04:52:54;;;;;;;22.15;19.95;;;;;;;11.12;100;96095.29;;;;
2019/09/15 04:53:55;;;;;;;22.15;19.95;;;;;;;11.12;100;96095.29;;;;
2019/09/15 04:54:56;;;;;;;22.15;19.95;;;;;;;11.12;100;96095.29;;;;
2019/09/15 04:55:57;;;;;;;22.15;19.95;;;;;;;11.12;100;96095.29;;;;
2019/09/15 04:56:59;;;;;;;22.15;19.95;;;;;;;11.12;100;96095.29;;;;
2019/09/15 04:58:01;;;;;;;22.15;19.95;;;;;;;11.12;100;96095.29;;;;
2019/09/15 04:59:02;;;;;;;22.15;19.95;;;;;;;11.12;100;96095.29;;;;
2019/09/15 05:00:04;;;;;;;22.15;19.95;;;;;;;11.12;100;96095.29;;;;
2019/09/15 05:01:07;;;;;;;22.15;19.95;;;;;;;11.12;100;96095.29;;;;
2019/09/15 05:02:09;;;;;;;22.15;19.95;;;;;;;11.12;100;96095.29;;;;
2019/09/15 05:03:10;;;;;;;22.15;19.95;;;;;;;11.12;100;96095.29;;;;
2019/09/15 05:04:11;;;;;;;22.9;20.65;;;;;;;11.15;100;96103.08;;;;
2019/09/15 05:05:13;;;;;;;22.9;20.65;;;;;;;11.15;100;96103.08;;;;
2019/09/15 05:06:16;;;;;;;24.4;21.95;;;;;;;11.2;100;96102.31;;;;
2019/09/15 05:07:17;;;;;;;24.4;21.95;;;;;;;11.2;100;96102.31;;;;
2019/09/15 05:08:18;;;;;;;24.4;21.95;;;;;;;11.2;100;96102.31;;;;
2019/09/15 05:09:19;;;;;;;24.4;21.95;;;;;;;11.2;100;96102.31;;;;
2019/09/15 05:10:20;;;;;;;24.4;21.95;;;;;;;11.2;100;96102.31;;;;
2019/09/15 05:11:23;;;;;;;24.4;21.95;;;;;;;11.2;100;96102.31;;;;
2019/09/15 05:12:24;;;;;;;24.4;21.95;;;;;;;11.2;100;96102.31;;;;
2019/09/15 05:13:26;;;;;;;24.4;21.95;;;;;;;11.2;100;96102.31;;;;
2019/09/15 05:14:27;;;;;;;24.4;21.95;;;;;;;11.2;100;96102.31;;;;
2019/09/15 05:15:28;;;;;;;24.4;21.95;;;;;;;11.2;100;96102.31;;;;
2019/09/15 05:16:29;;;;;;;24.4;21.95;;;;;;;11.2;100;96102.31;;;;
2019/09/15 05:17:31;;;;;;;30.15;27;;;;;;;11.34;100;96101.98;;;;
2019/09/15 05:18:32;;;;;;;30.15;27;;;;;;;11.34;100;96101.98;;;;
2019/09/15 05:19:33;;;;;;;30.15;27;;;;;;;11.34;100;96101.98;;;;
2019/09/15 05:20:34;;;;;;;30.15;27;;;;;;;11.34;100;96101.98;;;;
2019/09/15 05:22:11;;;;;;;30.15;27;;;;;;;11.34;100;96101.98;;;;
2019/09/15 05:23:57;;;;;;;30.15;27;;;;;;;11.34;100;96101.98;;;;
2019/09/15 05:25:15;;;;;;;30.15;27;;;;;;;11.34;100;96101.98;;;;
2019/09/15 05:26:16;;;;;;;30.15;27;;;;;;;11.34;100;96101.98;;;;
2019/09/15 05:27:17;;;;;;;30.15;27;;;;;;;11.34;100;96101.98;;;;
2019/09/15 05:28:18;;;;;;;36.65;30.9;;;;;;;11.65;100;96110.6;;;;
2019/09/15 05:29:19;;;;;;;36.65;30.9;;;;;;;11.65;100;96110.6;;;;
2019/09/15 05:30:21;;;;;;;36.65;30.9;;;;;;;11.65;100;96110.6;;;;
2019/09/15 05:31:22;;;;;;;36.65;30.9;;;;;;;11.65;100;96110.6;;;;
2019/09/15 05:32:24;;;;;;;36.65;30.9;;;;;;;11.65;100;96110.6;;;;
2019/09/15 05:33:25;;;;;;;36.65;30.9;;;;;;;11.65;100;96110.6;;;;
2019/09/15 05:34:26;;;;;;;36.65;30.9;;;;;;;11.65;100;96110.6;;;;
2019/09/15 05:35:28;;;;;;;36.65;30.9;;;;;;;11.65;100;96110.6;;;;
2019/09/15 05:36:30;;;;;;;36.65;30.9;;;;;;;11.65;100;96110.6;;;;
2019/09/15 05:37:31;;;;;;;36.65;30.9;;;;;;;11.65;100;96110.6;;;;
2019/09/15 05:38:32;;;;;;;29.45;26.35;;;;;;;11.94;100;96106.22;;;;
2019/09/15 05:39:33;;;;;;;29.45;26.35;;;;;;;11.94;100;96106.22;;;;
2019/09/15 05:40:34;;;;;;;29.45;26.35;;;;;;;11.94;100;96106.22;;;;
2019/09/15 05:41:35;;;;;;;29.45;26.35;;;;;;;11.94;100;96106.22;;;;
2019/09/15 05:42:36;;;;;;;29.45;26.35;;;;;;;11.94;100;96106.22;;;;
2019/09/15 05:43:38;;;;;;;29.45;26.35;;;;;;;11.94;100;96106.22;;;;
2019/09/15 05:44:39;;;;;;;29.45;26.35;;;;;;;11.94;100;96106.22;;;;
2019/09/15 05:45:44;;;;;;;29.45;26.35;;;;;;;11.94;100;96106.22;;;;
2019/09/15 05:47:05;;;;;;;29.45;26.35;;;;;;;11.94;100;96106.22;;;;
2019/09/15 05:48:06;;;;;;;29.45;26.35;;;;;;;11.94;100;96106.22;;;;
2019/09/15 05:49:07;;;;;;;25.45;22.9;;;;;;;12.25;100;96102.15;;;;
2019/09/15 05:50:09;;;;;;;25.45;22.9;;;;;;;12.25;100;96102.15;;;;
2019/09/15 05:51:10;;;;;;;25.45;22.9;;;;;;;12.25;100;96102.15;;;;
2019/09/15 05:53:15;;;;;;;25.45;22.9;;;;;;;12.25;100;96102.15;;;;
2019/09/15 05:54:16;;;;;;;25.45;22.9;;;;;;;12.25;100;96102.15;;;;
2019/09/15 05:55:17;;;;;;;25.45;22.9;;;;;;;12.25;100;96102.15;;;;
2019/09/15 05:56:22;;;;;;;25.45;22.9;;;;;;;12.25;100;96102.15;;;;
2019/09/15 05:57:26;;;;;;;25.45;22.9;;;;;;;12.25;100;96102.15;;;;
2019/09/15 05:58:27;;;;;;;25.45;22.9;;;;;;;12.25;100;96102.15;;;;
2019/09/15 05:59:28;;;;;;;22.75;20.55;;;;;;;12.47;100;96101.03;;;;
2019/09/15 06:00:30;;;;;;;22.75;20.55;;;;;;;12.47;100;96101.03;;;;
2019/09/15 06:01:47;;;;;;;22.75;20.55;;;;;;;12.47;100;96101.03;;;;
2019/09/15 06:02:49;;;;;;;22.75;20.55;;;;;;;12.47;100;96101.03;;;;
2019/09/15 06:03:50;;;;;;;22.75;20.55;;;;;;;12.47;100;96101.03;;;;
2019/09/15 06:04:51;;;;;;;22.75;20.55;;;;;;;12.47;100;96101.03;;;;
2019/09/15 06:05:53;;;;;;;22.75;20.55;;;;;;;12.47;100;96101.03;;;;
2019/09/15 06:06:54;;;;;;;22.75;20.55;;;;;;;12.47;100;96101.03;;;;
2019/09/15 06:07:55;;;;;;;22.75;20.55;;;;;;;12.47;100;96101.03;;;;
2019/09/15 06:08:56;;;;;;;22.75;20.55;;;;;;;12.47;100;96101.03;;;;
2019/09/15 06:09:57;;;;;;;19.55;17.65;;;;;;;12.84;100;96101.39;;;;
2019/09/15 06:10:58;;;;;;;19.55;17.65;;;;;;;12.84;100;96101.39;;;;
2019/09/15 06:11:59;;;;;;;19.55;17.65;;;;;;;12.84;100;96101.39;;;;
2019/09/15 06:13:01;;;;;;;19.55;17.65;;;;;;;12.84;100;96101.39;;;;
2019/09/15 06:14:02;;;;;;;19.55;17.65;;;;;;;12.84;100;96101.39;;;;
2019/09/15 06:15:03;;;;;;;19.55;17.65;;;;;;;12.84;100;96101.39;;;;
2019/09/15 06:16:06;;;;;;;19.55;17.65;;;;;;;12.84;100;96101.39;;;;
2019/09/15 06:17:21;;;;;;;19.55;17.65;;;;;;;12.84;100;96101.39;;;;
2019/09/15 06:18:22;;;;;;;19.55;17.65;;;;;;;12.84;100;96101.39;;;;
2019/09/15 06:19:23;;;;;;;19.55;17.65;;;;;;;12.84;100;96101.39;;;;
2019/09/15 06:20:25;;;;;;;16.7;15.3;;;;;;;13.24;100;96110.22;;;;